This is the latest recevied weather packets stored in our database for station/object KM5VY. If no packets are shown the sender has not sent any weather packets the latest 10 day(s).
| Time | Temp. | Humidity | Pressure | Rain* | Wind** | Luminosity | Snow |
|---|---|---|---|---|---|---|---|
| 1778008267 | 15.56° C | 51% | 1012.5 hPa | 0 mm | - | - | - |
| 1778007666 | 16.11° C | 47% | 1012.5 hPa | 0 mm | - | - | - |
| 1778007065 | 16.67° C | 46% | 1012.5 hPa | 0 mm | - | - | - |
| 1778006464 | 17.22° C | 45% | 1012.5 hPa | 0 mm | - | - | - |
| 1778005864 | 17.22° C | 48% | 1012.2 hPa | 0 mm | - | - | - |
| 1778005262 | 16.67° C | 48% | 1012.5 hPa | 0 mm | - | - | - |
| 1778004661 | 16.11° C | 52% | 1012.5 hPa | 0 mm | - | - | - |
| 1778004235 | 15° C | 53% | 1012.9 hPa | 0 mm | - | - | - |
| 1778004060 | 15° C | 53% | 1012.9 hPa | 0 mm | - | - | - |
| 1778002858 | 13.89° C | 55% | 1012.9 hPa | 0 mm | - | - | - |
| 1778001656 | 12.78° C | 58% | 1012.9 hPa | 0 mm | - | - | - |
| 1778001055 | 11.67° C | 60% | 1013.2 hPa | 0 mm | - | - | - |
| 1778000613 | 11.11° C | 59% | 1013.2 hPa | 0 mm | - | - | - |
| 1778000454 | 11.11° C | 59% | 1013.2 hPa | 0 mm | - | - | - |
| 1777999853 | 10.56° C | 58% | 1013.2 hPa | 0 mm | - | - | - |
| 1777999254 | 10.56° C | 59% | 1013.2 hPa | 0 mm | - | - | - |
| 1777998817 | 10° C | 60% | 1013.5 hPa | 0 mm | - | - | - |
| 1777998652 | 10° C | 60% | 1013.5 hPa | 0 mm | - | - | - |
| 1777998051 | 10° C | 61% | 1013.5 hPa | 0 mm | - | - | - |
| 1777997449 | 10° C | 62% | 1013.9 hPa | 0 mm | - | - | - |
| 1777996848 | 10° C | 62% | 1013.9 hPa | 0 mm | - | - | - |
| 1777996247 | 10° C | 62% | 1013.9 hPa | 0 mm | - | - | - |
| 1777995647 | 10° C | 62% | 1013.9 hPa | 0 mm | - | - | - |
| 1777995258 | 9.44° C | 61% | 1013.9 hPa | 0 mm | - | - | - |
| 1777995102 | 9.44° C | 61% | 1013.9 hPa | 0 mm | - | - | - |
* Rain latest hour (hover to see other rain measurements)
** Current wind speed in m/s (hover to see current wind gust speed)